Terminal Aerodrome Forecast
Issued by NWS

Home | Current Version | Previous Version | Text Only | Print | Product List | Glossary Off
Versions: 1 2 3 4 5 6 7 8 9 10 11 12 13 14 15 16

124
FTUS43 KPAH 091609 AAB
TAFCGI
TAF AMD
KCGI 091609Z 0916/1012 32012KT 3SM -SHSN SCT015 OVC030
      TEMPO 0916/0920 1SM -SHSN OVC015
     FM100200 31010KT P6SM SCT035=

USA.gov is the U.S. government's official web portal to all federal, state and local government web resources and services.